sensor_id;sensor_type;location;lat;lon;timestamp;P1;durP1;ratioP1;P2;durP2;ratioP2
22557;SDS011;11445;53.816;8.902;2023-06-26T00:00:00;13.27;;;8.75;;
22557;SDS011;11445;53.816;8.902;2023-06-26T00:02:29;10.02;;;8.48;;
22557;SDS011;11445;53.816;8.902;2023-06-26T00:04:57;10.13;;;8.98;;
22557;SDS011;11445;53.816;8.902;2023-06-26T00:07:28;11.80;;;9.80;;
22557;SDS011;11445;53.816;8.902;2023-06-26T00:09:56;10.60;;;9.35;;
22557;SDS011;11445;53.816;8.902;2023-06-26T00:12:23;11.40;;;9.77;;
22557;SDS011;11445;53.816;8.902;2023-06-26T00:14:50;10.60;;;9.38;;
22557;SDS011;11445;53.816;8.902;2023-06-26T00:17:17;11.65;;;9.07;;
22557;SDS011;11445;53.816;8.902;2023-06-26T00:19:44;13.93;;;9.45;;
22557;SDS011;11445;53.816;8.902;2023-06-26T00:22:11;12.23;;;10.13;;
22557;SDS011;11445;53.816;8.902;2023-06-26T00:24:39;15.35;;;9.63;;
22557;SDS011;11445;53.816;8.902;2023-06-26T00:27:06;15.13;;;10.30;;
22557;SDS011;11445;53.816;8.902;2023-06-26T00:29:33;13.93;;;9.88;;
22557;SDS011;11445;53.816;8.902;2023-06-26T00:32:00;14.73;;;9.95;;
22557;SDS011;11445;53.816;8.902;2023-06-26T00:34:27;16.02;;;10.40;;
22557;SDS011;11445;53.816;8.902;2023-06-26T00:36:54;16.48;;;10.48;;
22557;SDS011;11445;53.816;8.902;2023-06-26T00:39:21;13.55;;;10.20;;
22557;SDS011;11445;53.816;8.902;2023-06-26T00:41:52;12.93;;;10.40;;
22557;SDS011;11445;53.816;8.902;2023-06-26T00:44:19;11.75;;;10.00;;
22557;SDS011;11445;53.816;8.902;2023-06-26T00:46:46;14.65;;;10.43;;
22557;SDS011;11445;53.816;8.902;2023-06-26T00:49:13;15.90;;;10.18;;
22557;SDS011;11445;53.816;8.902;2023-06-26T00:51:40;11.38;;;9.88;;
22557;SDS011;11445;53.816;8.902;2023-06-26T00:54:08;16.08;;;10.35;;
22557;SDS011;11445;53.816;8.902;2023-06-26T00:56:35;18.88;;;10.48;;
22557;SDS011;11445;53.816;8.902;2023-06-26T00:59:03;16.77;;;10.98;;
22557;SDS011;11445;53.816;8.902;2023-06-26T01:01:30;16.42;;;10.90;;
22557;SDS011;11445;53.816;8.902;2023-06-26T01:03:57;14.02;;;10.65;;
22557;SDS011;11445;53.816;8.902;2023-06-26T01:06:27;14.15;;;10.52;;
22557;SDS011;11445;53.816;8.902;2023-06-26T01:08:57;14.65;;;10.90;;
22557;SDS011;11445;53.816;8.902;2023-06-26T01:11:24;13.48;;;11.27;;
22557;SDS011;11445;53.816;8.902;2023-06-26T01:13:51;13.85;;;11.45;;
22557;SDS011;11445;53.816;8.902;2023-06-26T01:16:20;15.32;;;11.40;;
22557;SDS011;11445;53.816;8.902;2023-06-26T01:18:48;19.17;;;11.70;;
22557;SDS011;11445;53.816;8.902;2023-06-26T01:21:15;18.08;;;11.55;;
22557;SDS011;11445;53.816;8.902;2023-06-26T01:23:47;17.85;;;11.93;;
22557;SDS011;11445;53.816;8.902;2023-06-26T01:26:32;13.55;;;11.18;;
22557;SDS011;11445;53.816;8.902;2023-06-26T01:29:01;19.98;;;11.23;;
22557;SDS011;11445;53.816;8.902;2023-06-26T01:31:30;16.02;;;11.38;;
22557;SDS011;11445;53.816;8.902;2023-06-26T01:33:57;12.25;;;10.77;;
22557;SDS011;11445;53.816;8.902;2023-06-26T01:36:25;17.43;;;11.40;;
22557;SDS011;11445;53.816;8.902;2023-06-26T01:38:52;15.02;;;11.57;;
22557;SDS011;11445;53.816;8.902;2023-06-26T01:41:19;13.60;;;11.57;;
22557;SDS011;11445;53.816;8.902;2023-06-26T01:43:53;12.15;;;10.95;;
22557;SDS011;11445;53.816;8.902;2023-06-26T01:46:35;12.68;;;11.23;;
22557;SDS011;11445;53.816;8.902;2023-06-26T01:49:07;13.30;;;11.32;;
22557;SDS011;11445;53.816;8.902;2023-06-26T01:51:42;12.23;;;11.00;;
22557;SDS011;11445;53.816;8.902;2023-06-26T01:54:13;13.00;;;11.63;;
22557;SDS011;11445;53.816;8.902;2023-06-26T01:56:43;14.23;;;10.82;;
22557;SDS011;11445;53.816;8.902;2023-06-26T01:59:15;17.38;;;11.50;;
22557;SDS011;11445;53.816;8.902;2023-06-26T02:01:45;12.70;;;11.30;;
22557;SDS011;11445;53.816;8.902;2023-06-26T02:04:13;12.50;;;10.93;;
22557;SDS011;11445;53.816;8.902;2023-06-26T02:06:39;13.48;;;11.30;;
22557;SDS011;11445;53.816;8.902;2023-06-26T02:09:06;14.30;;;11.60;;
22557;SDS011;11445;53.816;8.902;2023-06-26T02:11:33;18.25;;;11.88;;
22557;SDS011;11445;53.816;8.902;2023-06-26T02:14:00;13.07;;;11.35;;
22557;SDS011;11445;53.816;8.902;2023-06-26T02:16:29;13.63;;;11.55;;
22557;SDS011;11445;53.816;8.902;2023-06-26T02:18:56;13.57;;;12.18;;
22557;SDS011;11445;53.816;8.902;2023-06-26T02:21:23;13.50;;;11.45;;
22557;SDS011;11445;53.816;8.902;2023-06-26T02:23:50;12.20;;;10.90;;
22557;SDS011;11445;53.816;8.902;2023-06-26T02:26:17;13.68;;;11.45;;
22557;SDS011;11445;53.816;8.902;2023-06-26T02:28:43;13.20;;;11.80;;
22557;SDS011;11445;53.816;8.902;2023-06-26T02:31:10;14.70;;;12.05;;
22557;SDS011;11445;53.816;8.902;2023-06-26T02:33:38;14.02;;;11.82;;
22557;SDS011;11445;53.816;8.902;2023-06-26T02:36:05;13.82;;;12.32;;
22557;SDS011;11445;53.816;8.902;2023-06-26T02:38:32;13.00;;;11.52;;
22557;SDS011;11445;53.816;8.902;2023-06-26T02:40:59;12.95;;;11.63;;
22557;SDS011;11445;53.816;8.902;2023-06-26T02:43:25;15.15;;;11.75;;
22557;SDS011;11445;53.816;8.902;2023-06-26T02:45:52;15.63;;;11.82;;
22557;SDS011;11445;53.816;8.902;2023-06-26T02:48:19;13.15;;;11.75;;
22557;SDS011;11445;53.816;8.902;2023-06-26T02:50:47;14.07;;;11.32;;
22557;SDS011;11445;53.816;8.902;2023-06-26T02:53:14;16.33;;;11.65;;
22557;SDS011;11445;53.816;8.902;2023-06-26T02:55:41;15.77;;;11.73;;
22557;SDS011;11445;53.816;8.902;2023-06-26T02:58:07;14.30;;;12.40;;
22557;SDS011;11445;53.816;8.902;2023-06-26T03:00:34;14.02;;;12.52;;
22557;SDS011;11445;53.816;8.902;2023-06-26T03:03:06;13.55;;;11.80;;
22557;SDS011;11445;53.816;8.902;2023-06-26T03:05:33;13.80;;;12.10;;
22557;SDS011;11445;53.816;8.902;2023-06-26T03:08:01;14.90;;;10.80;;
22557;SDS011;11445;53.816;8.902;2023-06-26T03:10:28;16.17;;;11.90;;
22557;SDS011;11445;53.816;8.902;2023-06-26T03:12:55;19.20;;;11.77;;
22557;SDS011;11445;53.816;8.902;2023-06-26T03:15:22;16.10;;;11.80;;
22557;SDS011;11445;53.816;8.902;2023-06-26T03:17:49;15.93;;;12.30;;
22557;SDS011;11445;53.816;8.902;2023-06-26T03:20:16;17.27;;;11.88;;
22557;SDS011;11445;53.816;8.902;2023-06-26T03:22:43;13.90;;;12.40;;
22557;SDS011;11445;53.816;8.902;2023-06-26T03:25:11;12.38;;;11.07;;
22557;SDS011;11445;53.816;8.902;2023-06-26T03:27:38;13.02;;;11.35;;
22557;SDS011;11445;53.816;8.902;2023-06-26T03:30:05;16.40;;;11.23;;
22557;SDS011;11445;53.816;8.902;2023-06-26T03:32:32;14.02;;;11.35;;
22557;SDS011;11445;53.816;8.902;2023-06-26T03:34:59;14.82;;;11.23;;
22557;SDS011;11445;53.816;8.902;2023-06-26T03:37:27;11.85;;;10.65;;
22557;SDS011;11445;53.816;8.902;2023-06-26T03:39:53;14.90;;;10.52;;
22557;SDS011;11445;53.816;8.902;2023-06-26T03:42:22;17.48;;;11.63;;
22557;SDS011;11445;53.816;8.902;2023-06-26T03:44:48;12.05;;;10.82;;
22557;SDS011;11445;53.816;8.902;2023-06-26T03:47:15;12.38;;;9.88;;
22557;SDS011;11445;53.816;8.902;2023-06-26T03:49:42;14.63;;;9.68;;
22557;SDS011;11445;53.816;8.902;2023-06-26T03:52:09;13.80;;;11.60;;
22557;SDS011;11445;53.816;8.902;2023-06-26T03:54:35;12.18;;;10.88;;
22557;SDS011;11445;53.816;8.902;2023-06-26T03:57:02;12.32;;;11.13;;
22557;SDS011;11445;53.816;8.902;2023-06-26T03:59:31;12.93;;;10.27;;
22557;SDS011;11445;53.816;8.902;2023-06-26T04:01:58;13.65;;;10.95;;
22557;SDS011;11445;53.816;8.902;2023-06-26T04:04:24;12.73;;;11.38;;
22557;SDS011;11445;53.816;8.902;2023-06-26T04:06:51;15.25;;;10.93;;
22557;SDS011;11445;53.816;8.902;2023-06-26T04:09:18;13.90;;;11.02;;
22557;SDS011;11445;53.816;8.902;2023-06-26T04:11:45;13.10;;;10.50;;
22557;SDS011;11445;53.816;8.902;2023-06-26T04:14:12;11.35;;;10.25;;
22557;SDS011;11445;53.816;8.902;2023-06-26T04:16:40;14.27;;;10.55;;
22557;SDS011;11445;53.816;8.902;2023-06-26T04:19:06;16.52;;;10.85;;
22557;SDS011;11445;53.816;8.902;2023-06-26T04:21:35;13.82;;;10.30;;
22557;SDS011;11445;53.816;8.902;2023-06-26T04:24:02;16.20;;;10.48;;
22557;SDS011;11445;53.816;8.902;2023-06-26T04:26:29;12.85;;;10.52;;
22557;SDS011;11445;53.816;8.902;2023-06-26T04:28:55;12.80;;;10.63;;
22557;SDS011;11445;53.816;8.902;2023-06-26T04:31:22;13.88;;;10.20;;
22557;SDS011;11445;53.816;8.902;2023-06-26T04:33:51;12.52;;;10.13;;
22557;SDS011;11445;53.816;8.902;2023-06-26T04:36:20;11.48;;;10.25;;
22557;SDS011;11445;53.816;8.902;2023-06-26T04:38:47;11.10;;;9.98;;
22557;SDS011;11445;53.816;8.902;2023-06-26T04:41:14;18.50;;;10.27;;
22557;SDS011;11445;53.816;8.902;2023-06-26T04:43:41;14.95;;;10.48;;
22557;SDS011;11445;53.816;8.902;2023-06-26T04:46:07;21.02;;;10.50;;
22557;SDS011;11445;53.816;8.902;2023-06-26T04:48:34;11.57;;;10.27;;
22557;SDS011;11445;53.816;8.902;2023-06-26T04:51:02;10.68;;;9.57;;
22557;SDS011;11445;53.816;8.902;2023-06-26T04:53:29;13.77;;;9.90;;
22557;SDS011;11445;53.816;8.902;2023-06-26T04:55:56;16.83;;;10.23;;
22557;SDS011;11445;53.816;8.902;2023-06-26T04:58:23;16.77;;;9.95;;
22557;SDS011;11445;53.816;8.902;2023-06-26T05:00:49;11.93;;;10.18;;
22557;SDS011;11445;53.816;8.902;2023-06-26T05:03:16;17.10;;;10.50;;
22557;SDS011;11445;53.816;8.902;2023-06-26T05:05:44;18.48;;;9.90;;
22557;SDS011;11445;53.816;8.902;2023-06-26T05:08:15;11.50;;;10.27;;
22557;SDS011;11445;53.816;8.902;2023-06-26T05:10:43;15.20;;;10.03;;
22557;SDS011;11445;53.816;8.902;2023-06-26T05:13:10;10.95;;;9.85;;
22557;SDS011;11445;53.816;8.902;2023-06-26T05:15:40;13.85;;;10.23;;
22557;SDS011;11445;53.816;8.902;2023-06-26T05:18:06;12.48;;;9.45;;
22557;SDS011;11445;53.816;8.902;2023-06-26T05:20:33;13.15;;;9.30;;
22557;SDS011;11445;53.816;8.902;2023-06-26T05:23:01;10.55;;;9.35;;
22557;SDS011;11445;53.816;8.902;2023-06-26T05:25:30;10.07;;;8.65;;
22557;SDS011;11445;53.816;8.902;2023-06-26T05:27:59;13.77;;;9.13;;
22557;SDS011;11445;53.816;8.902;2023-06-26T05:30:26;12.35;;;8.75;;
22557;SDS011;11445;53.816;8.902;2023-06-26T05:32:56;13.93;;;8.35;;
22557;SDS011;11445;53.816;8.902;2023-06-26T05:35:25;10.98;;;9.13;;
22557;SDS011;11445;53.816;8.902;2023-06-26T05:37:54;11.25;;;9.25;;
22557;SDS011;11445;53.816;8.902;2023-06-26T05:40:23;9.63;;;8.40;;
22557;SDS011;11445;53.816;8.902;2023-06-26T05:42:52;9.27;;;8.38;;
22557;SDS011;11445;53.816;8.902;2023-06-26T05:45:19;9.85;;;8.80;;
22557;SDS011;11445;53.816;8.902;2023-06-26T05:47:45;13.48;;;8.88;;
22557;SDS011;11445;53.816;8.902;2023-06-26T05:50:13;10.40;;;8.93;;
22557;SDS011;11445;53.816;8.902;2023-06-26T05:52:41;11.13;;;7.63;;
22557;SDS011;11445;53.816;8.902;2023-06-26T05:55:09;9.23;;;8.15;;
22557;SDS011;11445;53.816;8.902;2023-06-26T05:57:37;10.98;;;8.82;;
22557;SDS011;11445;53.816;8.902;2023-06-26T06:00:08;11.63;;;8.02;;
22557;SDS011;11445;53.816;8.902;2023-06-26T06:02:36;11.82;;;8.25;;
22557;SDS011;11445;53.816;8.902;2023-06-26T06:05:03;11.00;;;7.95;;
22557;SDS011;11445;53.816;8.902;2023-06-26T06:07:31;9.00;;;8.10;;
22557;SDS011;11445;53.816;8.902;2023-06-26T06:09:58;10.43;;;8.18;;
22557;SDS011;11445;53.816;8.902;2023-06-26T06:12:25;8.68;;;7.43;;
22557;SDS011;11445;53.816;8.902;2023-06-26T06:14:52;9.13;;;7.78;;
22557;SDS011;11445;53.816;8.902;2023-06-26T06:17:20;11.70;;;8.20;;
22557;SDS011;11445;53.816;8.902;2023-06-26T06:19:47;11.98;;;8.15;;
22557;SDS011;11445;53.816;8.902;2023-06-26T06:22:14;11.38;;;8.00;;
22557;SDS011;11445;53.816;8.902;2023-06-26T06:24:42;11.35;;;8.38;;
22557;SDS011;11445;53.816;8.902;2023-06-26T06:27:10;12.13;;;8.27;;
22557;SDS011;11445;53.816;8.902;2023-06-26T06:29:36;9.20;;;8.30;;
22557;SDS011;11445;53.816;8.902;2023-06-26T06:32:03;8.75;;;7.85;;
22557;SDS011;11445;53.816;8.902;2023-06-26T06:34:32;9.38;;;7.72;;
22557;SDS011;11445;53.816;8.902;2023-06-26T06:36:59;10.95;;;7.97;;
22557;SDS011;11445;53.816;8.902;2023-06-26T06:39:26;9.73;;;8.07;;
22557;SDS011;11445;53.816;8.902;2023-06-26T06:41:52;9.25;;;7.82;;
22557;SDS011;11445;53.816;8.902;2023-06-26T06:44:19;13.73;;;7.50;;
22557;SDS011;11445;53.816;8.902;2023-06-26T06:46:47;8.45;;;7.65;;
22557;SDS011;11445;53.816;8.902;2023-06-26T06:49:13;11.48;;;8.05;;
22557;SDS011;11445;53.816;8.902;2023-06-26T06:51:42;8.50;;;7.70;;
22557;SDS011;11445;53.816;8.902;2023-06-26T06:54:08;8.60;;;7.57;;
22557;SDS011;11445;53.816;8.902;2023-06-26T06:56:35;10.23;;;7.45;;
22557;SDS011;11445;53.816;8.902;2023-06-26T06:59:02;12.23;;;7.43;;
22557;SDS011;11445;53.816;8.902;2023-06-26T07:01:29;9.27;;;7.70;;
22557;SDS011;11445;53.816;8.902;2023-06-26T07:03:56;12.82;;;7.55;;
22557;SDS011;11445;53.816;8.902;2023-06-26T07:06:22;10.70;;;7.47;;
22557;SDS011;11445;53.816;8.902;2023-06-26T07:08:51;8.43;;;7.43;;
22557;SDS011;11445;53.816;8.902;2023-06-26T07:11:17;11.52;;;7.22;;
22557;SDS011;11445;53.816;8.902;2023-06-26T07:13:44;14.07;;;7.78;;
22557;SDS011;11445;53.816;8.902;2023-06-26T07:16:11;8.77;;;7.60;;
22557;SDS011;11445;53.816;8.902;2023-06-26T07:18:40;10.82;;;8.30;;
22557;SDS011;11445;53.816;8.902;2023-06-26T07:21:08;15.00;;;7.82;;
22557;SDS011;11445;53.816;8.902;2023-06-26T07:23:35;11.20;;;7.82;;
22557;SDS011;11445;53.816;8.902;2023-06-26T07:26:03;15.57;;;9.00;;
22557;SDS011;11445;53.816;8.902;2023-06-26T07:28:30;16.10;;;8.60;;
22557;SDS011;11445;53.816;8.902;2023-06-26T07:30:57;11.18;;;9.10;;
22557;SDS011;11445;53.816;8.902;2023-06-26T07:33:23;10.30;;;8.55;;
22557;SDS011;11445;53.816;8.902;2023-06-26T07:35:50;11.95;;;8.80;;
22557;SDS011;11445;53.816;8.902;2023-06-26T07:38:17;11.85;;;9.45;;
22557;SDS011;11445;53.816;8.902;2023-06-26T07:40:44;15.52;;;10.45;;
22557;SDS011;11445;53.816;8.902;2023-06-26T07:43:12;12.77;;;10.32;;
22557;SDS011;11445;53.816;8.902;2023-06-26T07:45:39;19.30;;;9.73;;
22557;SDS011;11445;53.816;8.902;2023-06-26T07:48:05;14.45;;;11.25;;
22557;SDS011;11445;53.816;8.902;2023-06-26T07:50:34;24.92;;;11.77;;
22557;SDS011;11445;53.816;8.902;2023-06-26T07:53:00;14.30;;;11.80;;
22557;SDS011;11445;53.816;8.902;2023-06-26T07:55:27;16.17;;;11.93;;
22557;SDS011;11445;53.816;8.902;2023-06-26T07:57:54;16.20;;;11.93;;
22557;SDS011;11445;53.816;8.902;2023-06-26T08:00:22;16.88;;;12.32;;
22557;SDS011;11445;53.816;8.902;2023-06-26T08:02:49;18.88;;;11.50;;
22557;SDS011;11445;53.816;8.902;2023-06-26T08:05:16;12.65;;;9.15;;
22557;SDS011;11445;53.816;8.902;2023-06-26T08:07:43;15.45;;;8.18;;
22557;SDS011;11445;53.816;8.902;2023-06-26T08:10:10;13.98;;;7.07;;
22557;SDS011;11445;53.816;8.902;2023-06-26T08:12:37;11.73;;;6.45;;
22557;SDS011;11445;53.816;8.902;2023-06-26T08:15:05;17.67;;;6.20;;
22557;SDS011;11445;53.816;8.902;2023-06-26T08:17:35;14.15;;;6.88;;
22557;SDS011;11445;53.816;8.902;2023-06-26T08:20:02;9.88;;;6.57;;
22557;SDS011;11445;53.816;8.902;2023-06-26T08:22:29;11.50;;;6.90;;
22557;SDS011;11445;53.816;8.902;2023-06-26T08:24:56;14.70;;;7.72;;
22557;SDS011;11445;53.816;8.902;2023-06-26T08:27:23;17.38;;;9.38;;
22557;SDS011;11445;53.816;8.902;2023-06-26T08:29:50;13.20;;;8.57;;
22557;SDS011;11445;53.816;8.902;2023-06-26T08:32:16;13.13;;;8.25;;
22557;SDS011;11445;53.816;8.902;2023-06-26T08:34:45;15.82;;;8.70;;
22557;SDS011;11445;53.816;8.902;2023-06-26T08:37:11;15.63;;;9.10;;
22557;SDS011;11445;53.816;8.902;2023-06-26T08:39:38;14.98;;;7.90;;
22557;SDS011;11445;53.816;8.902;2023-06-26T08:42:05;21.80;;;8.43;;
22557;SDS011;11445;53.816;8.902;2023-06-26T08:44:32;21.13;;;8.63;;
22557;SDS011;11445;53.816;8.902;2023-06-26T08:46:59;22.15;;;8.32;;
22557;SDS011;11445;53.816;8.902;2023-06-26T08:49:28;28.13;;;9.05;;
22557;SDS011;11445;53.816;8.902;2023-06-26T08:52:02;26.98;;;9.00;;
22557;SDS011;11445;53.816;8.902;2023-06-26T08:54:34;25.92;;;8.98;;
22557;SDS011;11445;53.816;8.902;2023-06-26T08:57:06;30.10;;;8.70;;
22557;SDS011;11445;53.816;8.902;2023-06-26T08:59:33;30.35;;;8.02;;
22557;SDS011;11445;53.816;8.902;2023-06-26T09:02:00;15.52;;;7.10;;
22557;SDS011;11445;53.816;8.902;2023-06-26T09:04:27;17.75;;;8.00;;
22557;SDS011;11445;53.816;8.902;2023-06-26T09:06:54;15.80;;;7.47;;
22557;SDS011;11445;53.816;8.902;2023-06-26T09:09:23;22.88;;;8.00;;
22557;SDS011;11445;53.816;8.902;2023-06-26T09:11:49;16.95;;;8.40;;
22557;SDS011;11445;53.816;8.902;2023-06-26T09:14:16;15.00;;;8.63;;
22557;SDS011;11445;53.816;8.902;2023-06-26T09:16:43;19.88;;;9.88;;
22557;SDS011;11445;53.816;8.902;2023-06-26T09:19:11;19.00;;;9.80;;
22557;SDS011;11445;53.816;8.902;2023-06-26T09:21:39;22.42;;;10.13;;
22557;SDS011;11445;53.816;8.902;2023-06-26T09:24:07;24.63;;;10.52;;
22557;SDS011;11445;53.816;8.902;2023-06-26T09:26:36;26.80;;;10.80;;
22557;SDS011;11445;53.816;8.902;2023-06-26T09:29:04;23.08;;;9.95;;
22557;SDS011;11445;53.816;8.902;2023-06-26T09:31:32;22.88;;;10.63;;
22557;SDS011;11445;53.816;8.902;2023-06-26T09:34:01;27.67;;;12.10;;
22557;SDS011;11445;53.816;8.902;2023-06-26T09:36:29;25.70;;;12.20;;
22557;SDS011;11445;53.816;8.902;2023-06-26T09:38:58;22.42;;;11.02;;
22557;SDS011;11445;53.816;8.902;2023-06-26T09:41:27;28.30;;;11.10;;
22557;SDS011;11445;53.816;8.902;2023-06-26T09:43:58;25.15;;;10.48;;
22557;SDS011;11445;53.816;8.902;2023-06-26T09:46:28;23.80;;;9.35;;
22557;SDS011;11445;53.816;8.902;2023-06-26T09:49:00;32.55;;;8.93;;
22557;SDS011;11445;53.816;8.902;2023-06-26T09:51:29;32.88;;;8.73;;
22557;SDS011;11445;53.816;8.902;2023-06-26T09:53:57;17.55;;;7.75;;
22557;SDS011;11445;53.816;8.902;2023-06-26T09:56:24;26.45;;;7.28;;
22557;SDS011;11445;53.816;8.902;2023-06-26T09:58:51;14.80;;;6.05;;
22557;SDS011;11445;53.816;8.902;2023-06-26T10:01:21;25.88;;;6.68;;
22557;SDS011;11445;53.816;8.902;2023-06-26T10:03:47;18.48;;;5.65;;
22557;SDS011;11445;53.816;8.902;2023-06-26T10:06:14;18.30;;;4.68;;
22557;SDS011;11445;53.816;8.902;2023-06-26T10:08:45;15.57;;;4.47;;
22557;SDS011;11445;53.816;8.902;2023-06-26T10:11:14;15.80;;;4.13;;
22557;SDS011;11445;53.816;8.902;2023-06-26T10:13:45;23.55;;;5.38;;
22557;SDS011;11445;53.816;8.902;2023-06-26T10:16:16;11.27;;;3.88;;
22557;SDS011;11445;53.816;8.902;2023-06-26T10:18:49;16.23;;;3.63;;
22557;SDS011;11445;53.816;8.902;2023-06-26T10:21:19;13.30;;;2.88;;
22557;SDS011;11445;53.816;8.902;2023-06-26T10:23:48;10.82;;;3.13;;
22557;SDS011;11445;53.816;8.902;2023-06-26T10:26:17;7.53;;;2.28;;
22557;SDS011;11445;53.816;8.902;2023-06-26T10:28:47;14.02;;;3.13;;
22557;SDS011;11445;53.816;8.902;2023-06-26T10:31:17;14.10;;;3.17;;
22557;SDS011;11445;53.816;8.902;2023-06-26T10:33:46;16.85;;;3.55;;
22557;SDS011;11445;53.816;8.902;2023-06-26T10:36:15;12.27;;;3.00;;
22557;SDS011;11445;53.816;8.902;2023-06-26T10:38:50;15.80;;;3.20;;
22557;SDS011;11445;53.816;8.902;2023-06-26T10:41:21;17.05;;;3.47;;
22557;SDS011;11445;53.816;8.902;2023-06-26T10:43:49;13.45;;;3.28;;
22557;SDS011;11445;53.816;8.902;2023-06-26T10:46:17;15.05;;;3.20;;
22557;SDS011;11445;53.816;8.902;2023-06-26T10:48:59;13.20;;;3.42;;
22557;SDS011;11445;53.816;8.902;2023-06-26T10:51:26;13.85;;;3.55;;
22557;SDS011;11445;53.816;8.902;2023-06-26T10:53:54;9.80;;;3.03;;
22557;SDS011;11445;53.816;8.902;2023-06-26T10:56:25;14.68;;;3.30;;
22557;SDS011;11445;53.816;8.902;2023-06-26T10:59:14;15.70;;;3.85;;
22557;SDS011;11445;53.816;8.902;2023-06-26T11:01:42;13.48;;;3.40;;
22557;SDS011;11445;53.816;8.902;2023-06-26T11:04:12;12.32;;;3.05;;
22557;SDS011;11445;53.816;8.902;2023-06-26T11:06:41;18.00;;;3.40;;
22557;SDS011;11445;53.816;8.902;2023-06-26T11:09:14;10.85;;;2.90;;
22557;SDS011;11445;53.816;8.902;2023-06-26T11:11:55;15.13;;;3.00;;
22557;SDS011;11445;53.816;8.902;2023-06-26T11:14:29;12.07;;;2.80;;
22557;SDS011;11445;53.816;8.902;2023-06-26T11:16:57;10.88;;;2.75;;
22557;SDS011;11445;53.816;8.902;2023-06-26T11:19:26;13.40;;;2.60;;
22557;SDS011;11445;53.816;8.902;2023-06-26T11:22:03;19.17;;;2.65;;
22557;SDS011;11445;53.816;8.902;2023-06-26T11:24:30;12.32;;;2.90;;
22557;SDS011;11445;53.816;8.902;2023-06-26T11:27:01;14.27;;;2.60;;
22557;SDS011;11445;53.816;8.902;2023-06-26T11:29:29;13.85;;;2.85;;
22557;SDS011;11445;53.816;8.902;2023-06-26T11:32:01;9.35;;;2.40;;
22557;SDS011;11445;53.816;8.902;2023-06-26T11:34:32;8.43;;;2.15;;
22557;SDS011;11445;53.816;8.902;2023-06-26T11:36:59;8.88;;;2.03;;
22557;SDS011;11445;53.816;8.902;2023-06-26T11:39:28;8.70;;;2.17;;
22557;SDS011;11445;53.816;8.902;2023-06-26T11:41:55;13.10;;;2.10;;
22557;SDS011;11445;53.816;8.902;2023-06-26T11:44:22;9.65;;;2.45;;
22557;SDS011;11445;53.816;8.902;2023-06-26T11:46:51;9.35;;;2.15;;
22557;SDS011;11445;53.816;8.902;2023-06-26T11:49:20;11.30;;;2.17;;
22557;SDS011;11445;53.816;8.902;2023-06-26T11:51:52;8.07;;;2.10;;
22557;SDS011;11445;53.816;8.902;2023-06-26T11:54:26;10.23;;;2.72;;
22557;SDS011;11445;53.816;8.902;2023-06-26T11:59:22;10.30;;;2.60;;
22557;SDS011;11445;53.816;8.902;2023-06-26T12:01:49;10.95;;;2.00;;
22557;SDS011;11445;53.816;8.902;2023-06-26T12:04:17;8.32;;;1.88;;
22557;SDS011;11445;53.816;8.902;2023-06-26T12:06:46;8.13;;;1.88;;
22557;SDS011;11445;53.816;8.902;2023-06-26T12:09:15;9.63;;;2.10;;
22557;SDS011;11445;53.816;8.902;2023-06-26T12:11:45;8.30;;;2.13;;
22557;SDS011;11445;53.816;8.902;2023-06-26T12:14:14;6.43;;;1.52;;
22557;SDS011;11445;53.816;8.902;2023-06-26T12:16:43;4.28;;;1.70;;
22557;SDS011;11445;53.816;8.902;2023-06-26T12:19:10;6.60;;;2.03;;
22557;SDS011;11445;53.816;8.902;2023-06-26T12:21:44;3.45;;;1.60;;
22557;SDS011;11445;53.816;8.902;2023-06-26T12:24:14;9.65;;;1.95;;
22557;SDS011;11445;53.816;8.902;2023-06-26T12:26:43;7.28;;;1.55;;
22557;SDS011;11445;53.816;8.902;2023-06-26T12:29:11;11.15;;;1.67;;
22557;SDS011;11445;53.816;8.902;2023-06-26T12:31:39;4.05;;;1.63;;
22557;SDS011;11445;53.816;8.902;2023-06-26T12:34:11;6.38;;;1.85;;
22557;SDS011;11445;53.816;8.902;2023-06-26T12:36:42;4.18;;;2.03;;
22557;SDS011;11445;53.816;8.902;2023-06-26T12:39:10;4.25;;;1.90;;
22557;SDS011;11445;53.816;8.902;2023-06-26T12:41:46;9.30;;;1.92;;
22557;SDS011;11445;53.816;8.902;2023-06-26T12:44:17;7.80;;;1.75;;
22557;SDS011;11445;53.816;8.902;2023-06-26T12:46:45;5.90;;;1.90;;
22557;SDS011;11445;53.816;8.902;2023-06-26T12:49:13;5.00;;;1.75;;
22557;SDS011;11445;53.816;8.902;2023-06-26T12:51:40;10.07;;;1.42;;
22557;SDS011;11445;53.816;8.902;2023-06-26T12:54:07;10.85;;;1.60;;
22557;SDS011;11445;53.816;8.902;2023-06-26T12:56:35;7.20;;;1.92;;
22557;SDS011;11445;53.816;8.902;2023-06-26T12:59:03;5.75;;;1.92;;
22557;SDS011;11445;53.816;8.902;2023-06-26T13:01:30;6.82;;;2.08;;
22557;SDS011;11445;53.816;8.902;2023-06-26T13:03:57;4.80;;;1.80;;
22557;SDS011;11445;53.816;8.902;2023-06-26T13:06:24;8.40;;;2.08;;
22557;SDS011;11445;53.816;8.902;2023-06-26T13:08:51;5.28;;;1.98;;
22557;SDS011;11445;53.816;8.902;2023-06-26T13:11:18;6.85;;;1.70;;
22557;SDS011;11445;53.816;8.902;2023-06-26T13:13:46;4.60;;;1.75;;
22557;SDS011;11445;53.816;8.902;2023-06-26T13:16:14;5.88;;;2.08;;
22557;SDS011;11445;53.816;8.902;2023-06-26T13:18:43;2.67;;;1.75;;
22557;SDS011;11445;53.816;8.902;2023-06-26T13:21:10;6.05;;;2.00;;
22557;SDS011;11445;53.816;8.902;2023-06-26T13:23:37;6.38;;;1.92;;
22557;SDS011;11445;53.816;8.902;2023-06-26T13:26:04;6.57;;;1.90;;
22557;SDS011;11445;53.816;8.902;2023-06-26T13:28:31;6.70;;;2.28;;
22557;SDS011;11445;53.816;8.902;2023-06-26T13:30:58;6.90;;;2.33;;
22557;SDS011;11445;53.816;8.902;2023-06-26T13:33:26;4.97;;;2.05;;
22557;SDS011;11445;53.816;8.902;2023-06-26T13:35:53;7.43;;;2.28;;
22557;SDS011;11445;53.816;8.902;2023-06-26T13:38:20;9.38;;;2.38;;
22557;SDS011;11445;53.816;8.902;2023-06-26T13:40:49;7.60;;;2.05;;
22557;SDS011;11445;53.816;8.902;2023-06-26T13:43:16;8.18;;;1.80;;
22557;SDS011;11445;53.816;8.902;2023-06-26T13:45:43;9.60;;;2.30;;
22557;SDS011;11445;53.816;8.902;2023-06-26T13:48:10;8.55;;;2.45;;
22557;SDS011;11445;53.816;8.902;2023-06-26T13:50:38;12.15;;;2.67;;
22557;SDS011;11445;53.816;8.902;2023-06-26T13:53:05;3.63;;;2.28;;
22557;SDS011;11445;53.816;8.902;2023-06-26T13:55:32;8.07;;;1.85;;
22557;SDS011;11445;53.816;8.902;2023-06-26T13:58:00;7.43;;;1.90;;
22557;SDS011;11445;53.816;8.902;2023-06-26T14:00:29;13.27;;;2.97;;
22557;SDS011;11445;53.816;8.902;2023-06-26T14:02:56;5.85;;;1.80;;
22557;SDS011;11445;53.816;8.902;2023-06-26T14:05:22;6.95;;;2.08;;
22557;SDS011;11445;53.816;8.902;2023-06-26T14:07:51;7.60;;;2.30;;
22557;SDS011;11445;53.816;8.902;2023-06-26T14:10:19;9.23;;;1.70;;
22557;SDS011;11445;53.816;8.902;2023-06-26T14:12:46;4.60;;;1.85;;
22557;SDS011;11445;53.816;8.902;2023-06-26T14:15:13;11.20;;;1.90;;
22557;SDS011;11445;53.816;8.902;2023-06-26T14:17:40;7.32;;;2.45;;
22557;SDS011;11445;53.816;8.902;2023-06-26T14:20:07;11.20;;;2.20;;
22557;SDS011;11445;53.816;8.902;2023-06-26T14:22:37;8.70;;;2.65;;
22557;SDS011;11445;53.816;8.902;2023-06-26T14:25:06;9.02;;;2.67;;
22557;SDS011;11445;53.816;8.902;2023-06-26T14:27:34;13.30;;;2.50;;
22557;SDS011;11445;53.816;8.902;2023-06-26T14:30:01;11.68;;;2.83;;
22557;SDS011;11445;53.816;8.902;2023-06-26T14:32:29;6.68;;;2.08;;
22557;SDS011;11445;53.816;8.902;2023-06-26T14:34:56;10.40;;;2.70;;
22557;SDS011;11445;53.816;8.902;2023-06-26T14:37:22;9.77;;;2.47;;
22557;SDS011;11445;53.816;8.902;2023-06-26T14:39:50;7.47;;;2.45;;